FDMS/MTS METAR and TAF weather

Enter ICAO airport designator
Station Type Date Time Source
FDMS METAR 2019/05/23 13:00 UTC NOAA

FDMS 231300Z 10003KT CAVOK 25/13 Q1021 NOSIG


Station Type Date Time Source
FDMS Decoded METAR 2019/05/23 13:00 UTC NOAA

Manzini / Matsapa Airport, Swaziland (FDMS) 26-32S 031-18E
May 23, 2019 - 09:00 AM EDT / 2019.05.23 1300 UTC
Wind: from the E (100 degrees) at 3 MPH (3 KT):0
Visibility: greater than 7 mile(s):0
Temperature: 77 F (25 C)
Dew Point: 55 F (13 C)
Relative Humidity: 47%
Pressure (altimeter): 30.15 in. Hg (1021 hPa)
ob: FDMS 231300Z 10003KT CAVOK 25/13 Q1021 NOSIG
cycle: 13

Station Type Date Time Source
FDMS TAF 2019/03/27 09:00 UTC NOAA

TAF FDMS 270700Z 2709/2718 14005KT 9999 SCT020 BKN030
TEMPO 2710/2713 8000 -RA
BECMG 2714/2716 05007KT SCT035

Example: see airport list